createdAt,value
2023-01-02T00:01:09.140Z,8.47
2023-01-02T00:03:36.068Z,7.77
2023-01-02T00:06:07.228Z,8.83
2023-01-02T00:08:34.258Z,8.17
2023-01-02T00:11:01.117Z,7.57
2023-01-02T00:13:28.010Z,9.10
2023-01-02T00:15:54.869Z,9.73
2023-01-02T00:18:21.698Z,7.80
2023-01-02T00:20:48.615Z,8.00
2023-01-02T00:23:15.427Z,8.73
2023-01-02T00:25:42.542Z,7.70
2023-01-02T00:28:09.391Z,6.83
2023-01-02T00:30:39.022Z,9.50
2023-01-02T00:33:06.926Z,11.60
2023-01-02T00:35:34.509Z,4.73
2023-01-02T00:38:01.325Z,7.00
2023-01-02T00:40:28.341Z,11.43
2023-01-02T00:42:55.211Z,8.40
2023-01-02T00:45:22.272Z,8.20
2023-01-02T00:47:49.094Z,8.33
2023-01-02T00:50:15.951Z,8.83
2023-01-02T00:52:42.782Z,8.67
2023-01-02T00:55:10.113Z,7.43
2023-01-02T00:57:37.269Z,9.87
2023-01-02T01:00:05.894Z,7.43
2023-01-02T01:02:32.865Z,7.80
2023-01-02T01:04:59.714Z,8.47
2023-01-02T01:07:26.675Z,7.50
2023-01-02T01:09:53.457Z,5.10
2023-01-02T01:12:20.308Z,7.53
2023-01-02T01:14:47.044Z,10.17
2023-01-02T01:17:13.831Z,8.90
2023-01-02T01:19:40.671Z,6.33
2023-01-02T01:22:07.459Z,6.57
2023-01-02T01:24:34.263Z,10.40
2023-01-02T01:27:01.108Z,7.03
2023-01-02T01:29:27.884Z,5.37
2023-01-02T01:31:54.745Z,11.70
2023-01-02T01:34:21.510Z,9.07
2023-01-02T01:36:48.311Z,11.73
2023-01-02T01:39:15.146Z,8.80
2023-01-02T01:41:41.960Z,9.23
2023-01-02T01:44:46.267Z,6.53
2023-01-02T01:47:40.684Z,5.77
2023-01-02T01:50:07.399Z,5.77
2023-01-02T01:52:38.211Z,8.30
2023-01-02T01:55:17.509Z,6.37
2023-01-02T01:57:48.967Z,6.93
2023-01-02T02:00:16.366Z,7.70
2023-01-02T02:02:47.502Z,5.80
2023-01-02T02:05:19.095Z,12.80
2023-01-02T02:08:00.158Z,7.07
2023-01-02T02:10:27.024Z,7.43
2023-01-02T02:12:53.836Z,5.97
2023-01-02T02:15:40.761Z,6.00
2023-01-02T02:18:22.699Z,9.43
2023-01-02T02:21:01.091Z,15.67
2023-01-02T02:24:12.585Z,6.43
2023-01-02T02:27:00.357Z,7.20
2023-01-02T02:29:48.994Z,7.07
2023-01-02T02:32:46.471Z,6.00
2023-01-02T02:35:37.921Z,7.13
2023-01-02T02:38:19.949Z,9.57
2023-01-02T02:40:52.616Z,6.80
2023-01-02T02:43:30.581Z,7.50
2023-01-02T02:46:17.415Z,13.93
2023-01-02T02:49:01.275Z,8.83
2023-01-02T02:51:36.897Z,10.57
2023-01-02T02:54:14.736Z,8.07
2023-01-02T02:56:43.063Z,8.33
2023-01-02T02:59:10.711Z,6.40
2023-01-02T03:01:37.588Z,12.27
2023-01-02T03:04:17.354Z,8.43
2023-01-02T03:07:13.497Z,11.27
2023-01-02T03:09:40.227Z,8.47
2023-01-02T03:12:19.066Z,7.60
2023-01-02T03:14:58.768Z,6.00
2023-01-02T03:17:44.193Z,9.50
2023-01-02T03:20:16.217Z,8.93
2023-01-02T03:22:49.515Z,9.53
2023-01-02T03:25:18.014Z,5.57
2023-01-02T03:27:46.537Z,11.00
2023-01-02T03:30:18.403Z,5.93
2023-01-02T03:32:56.686Z,8.90
2023-01-02T03:35:46.849Z,11.53
2023-01-02T03:38:29.257Z,9.07
2023-01-02T03:41:05.910Z,7.23
2023-01-02T03:43:35.232Z,9.70
2023-01-02T03:46:33.591Z,9.47
2023-01-02T03:49:05.609Z,9.47
2023-01-02T03:51:33.945Z,12.53
2023-01-02T03:54:02.680Z,8.47
2023-01-02T03:56:55.650Z,8.63
2023-01-02T03:59:31.164Z,7.33
2023-01-02T04:02:26.732Z,8.27
2023-01-02T04:05:06.999Z,11.10
2023-01-02T04:07:53.093Z,6.00
2023-01-02T04:10:20.868Z,10.00
2023-01-02T04:12:52.230Z,9.57
2023-01-02T04:15:22.683Z,10.47
2023-01-02T04:18:01.890Z,6.33
2023-01-02T04:20:33.403Z,7.40
2023-01-02T04:23:13.081Z,9.53
2023-01-02T04:25:52.224Z,7.37
2023-01-02T04:28:26.494Z,10.23
2023-01-02T04:31:19.470Z,9.97
2023-01-02T04:33:57.370Z,9.30
2023-01-02T04:36:24.794Z,10.67
2023-01-02T04:38:51.882Z,8.03
2023-01-02T04:41:29.473Z,9.07
2023-01-02T04:43:57.321Z,7.37
2023-01-02T04:46:25.530Z,7.23
2023-01-02T04:48:53.224Z,10.73
2023-01-02T04:51:20.368Z,6.50
2023-01-02T04:53:51.220Z,8.63
2023-01-02T04:56:18.872Z,6.17
2023-01-02T04:58:46.357Z,8.73
2023-01-02T05:01:16.135Z,10.47
2023-01-02T05:03:44.989Z,8.63
2023-01-02T05:06:12.471Z,9.27
2023-01-02T05:08:39.888Z,9.80
2023-01-02T05:11:12.690Z,8.27
2023-01-02T05:13:39.894Z,8.53
2023-01-02T05:16:07.998Z,7.40
2023-01-02T05:18:34.915Z,12.83
2023-01-02T05:21:02.702Z,5.83
2023-01-02T05:23:48.338Z,10.07
2023-01-02T05:26:16.770Z,5.87
2023-01-02T05:28:43.953Z,9.03
2023-01-02T05:31:11.168Z,9.57
2023-01-02T05:33:38.489Z,7.70
2023-01-02T05:36:07.507Z,10.30
2023-01-02T05:38:34.781Z,13.00
2023-01-02T05:41:06.487Z,9.47
2023-01-02T05:43:35.106Z,6.93
2023-01-02T05:46:13.527Z,11.30
2023-01-02T05:48:41.039Z,6.93
2023-01-02T05:51:10.279Z,9.13
2023-01-02T05:53:37.520Z,7.10
2023-01-02T05:56:06.651Z,9.57
2023-01-02T05:58:35.225Z,6.87
2023-01-02T06:01:09.598Z,6.10
2023-01-02T06:03:36.841Z,11.17
2023-01-02T06:06:09.144Z,6.07
2023-01-02T06:08:36.560Z,10.10
2023-01-02T06:11:04.502Z,7.77
2023-01-02T06:13:33.525Z,6.50
2023-01-02T06:16:01.705Z,6.47
2023-01-02T06:18:30.252Z,5.60
2023-01-02T06:21:04.958Z,6.10
2023-01-02T06:23:32.148Z,8.07
2023-01-02T06:26:07.219Z,12.63
2023-01-02T06:28:34.374Z,9.77
2023-01-02T06:31:10.002Z,6.67
2023-01-02T06:33:37.260Z,7.53
2023-01-02T06:36:12.833Z,7.47
2023-01-02T06:38:39.914Z,7.17
2023-01-02T06:41:08.639Z,6.67
2023-01-02T06:43:37.208Z,8.80
2023-01-02T06:46:05.726Z,11.17
2023-01-02T06:48:33.902Z,5.60
2023-01-02T06:51:04.670Z,6.80
2023-01-02T06:53:38.272Z,11.93
2023-01-02T06:56:05.536Z,9.03
2023-01-02T06:58:33.869Z,5.10
2023-01-02T07:01:08.905Z,9.23
2023-01-02T07:03:36.070Z,7.63
2023-01-02T07:06:08.802Z,10.97
2023-01-02T07:08:36.067Z,8.83
2023-01-02T07:11:10.946Z,6.70
2023-01-02T07:13:38.274Z,8.40
2023-01-02T07:16:07.324Z,8.47
2023-01-02T07:18:36.946Z,7.43
2023-01-02T07:21:04.981Z,8.60
2023-01-02T07:23:32.027Z,8.27
2023-01-02T07:26:00.531Z,9.00
2023-01-02T07:28:28.993Z,7.70
2023-01-02T07:31:00.734Z,6.13
2023-01-02T07:33:32.310Z,8.13
2023-01-02T07:36:00.378Z,8.77
2023-01-02T07:38:27.804Z,10.57
2023-01-02T07:40:54.684Z,7.93
2023-01-02T07:43:23.143Z,10.37
2023-01-02T07:45:50.945Z,9.13
2023-01-02T07:48:18.743Z,6.80
2023-01-02T07:50:45.927Z,7.80
2023-01-02T07:53:12.976Z,7.73
2023-01-02T07:55:39.868Z,11.40
2023-01-02T07:58:06.622Z,7.80
2023-01-02T08:00:33.442Z,9.07
2023-01-02T08:03:01.310Z,9.53
2023-01-02T08:05:28.334Z,9.37
2023-01-02T08:07:55.224Z,8.63
2023-01-02T08:10:23.041Z,9.13
2023-01-02T08:12:50.059Z,8.63
2023-01-02T08:15:17.110Z,7.80
2023-01-02T08:17:43.942Z,7.97
2023-01-02T08:20:11.643Z,8.93
2023-01-02T08:22:38.552Z,8.90
2023-01-02T08:25:06.001Z,9.50
2023-01-02T08:27:32.836Z,9.00
2023-01-02T08:29:59.930Z,8.87
2023-01-02T08:32:27.020Z,6.60
2023-01-02T08:34:53.832Z,6.07
2023-01-02T08:37:20.840Z,10.53
2023-01-02T08:39:47.605Z,8.07
2023-01-02T08:42:14.391Z,5.87
2023-01-02T08:44:41.214Z,6.00
2023-01-02T08:47:08.187Z,6.23
2023-01-02T08:49:35.122Z,9.37
2023-01-02T08:52:01.951Z,8.23
2023-01-02T08:54:28.779Z,9.43
2023-01-02T08:56:55.672Z,6.87
2023-01-02T08:59:25.012Z,4.80
2023-01-02T09:01:52.651Z,10.97
2023-01-02T09:04:20.385Z,7.57
2023-01-02T09:06:47.780Z,5.97
2023-01-02T09:09:16.465Z,8.70
2023-01-02T09:11:51.975Z,8.83
2023-01-02T09:14:21.514Z,9.20
2023-01-02T09:16:49.938Z,10.60
2023-01-02T09:19:17.907Z,8.47
2023-01-02T09:21:45.141Z,5.80
2023-01-02T09:24:12.015Z,5.83
2023-01-02T09:26:41.611Z,7.30
2023-01-02T09:29:12.450Z,6.60
2023-01-02T09:31:40.159Z,6.20
2023-01-02T09:34:07.136Z,8.33
2023-01-02T09:36:33.928Z,6.80
2023-01-02T09:39:02.387Z,5.13
2023-01-02T09:41:50.797Z,10.67
2023-01-02T09:44:30.295Z,7.77
2023-01-02T09:47:12.113Z,11.27
2023-01-02T09:49:50.135Z,6.60
2023-01-02T09:52:31.007Z,4.83
2023-01-02T09:54:57.972Z,6.13
2023-01-02T09:57:27.546Z,8.60
2023-01-02T09:59:57.617Z,7.53
2023-01-02T10:03:14.596Z,6.77
2023-01-02T10:05:59.868Z,7.97
2023-01-02T10:08:49.072Z,4.30
2023-01-02T10:11:26.281Z,6.53
2023-01-02T10:16:52.992Z,5.97
2023-01-02T10:19:42.085Z,7.93
2023-01-02T10:22:13.918Z,6.83
2023-01-02T10:24:50.392Z,8.60
2023-01-02T10:27:21.216Z,5.47
2023-01-02T10:30:01.023Z,6.37
2023-01-02T10:32:29.989Z,4.03
2023-01-02T10:35:02.427Z,3.33
2023-01-02T10:37:29.716Z,3.40
2023-01-02T10:39:56.937Z,4.23
2023-01-02T10:42:24.915Z,6.90
2023-01-02T10:44:52.431Z,4.40
2023-01-02T10:47:35.604Z,5.13
2023-01-02T10:50:08.675Z,4.43
2023-01-02T10:52:39.561Z,2.13
2023-01-02T10:55:06.746Z,4.07
2023-01-02T10:57:36.480Z,1.87
2023-01-02T11:00:05.885Z,1.37
2023-01-02T11:02:40.933Z,2.47
2023-01-02T11:05:19.537Z,0.67
2023-01-02T11:07:49.348Z,1.47
2023-01-02T11:10:42.204Z,1.93
2023-01-02T11:13:13.434Z,0.77
2023-01-02T11:15:58.935Z,0.63
2023-01-02T11:18:34.663Z,1.00
2023-01-02T11:21:04.516Z,1.23
2023-01-02T11:23:43.615Z,0.57
2023-01-02T11:26:21.100Z,1.27
2023-01-02T11:28:50.510Z,1.37
2023-01-02T11:31:18.089Z,1.97
2023-01-02T11:33:46.140Z,1.13
2023-01-02T11:36:12.996Z,0.70
2023-01-02T11:38:54.029Z,1.47
2023-01-02T11:42:08.111Z,1.30
2023-01-02T11:44:48.089Z,1.23
2023-01-02T11:47:16.821Z,0.93
2023-01-02T11:49:45.759Z,1.10
2023-01-02T11:52:23.841Z,1.43
2023-01-02T11:55:07.195Z,0.90
2023-01-02T11:57:57.862Z,1.10
2023-01-02T12:00:29.677Z,1.80
2023-01-02T12:03:06.837Z,2.13
2023-01-02T12:05:42.600Z,1.90
2023-01-02T12:08:51.078Z,2.73
2023-01-02T12:11:43.587Z,2.00
2023-01-02T12:14:39.352Z,1.93
2023-01-02T12:17:13.995Z,2.87
2023-01-02T12:19:43.640Z,2.37
2023-01-02T12:22:23.517Z,2.50
2023-01-02T12:25:02.352Z,2.67
2023-01-02T12:27:54.582Z,2.10
2023-01-02T12:30:22.557Z,1.97
2023-01-02T12:33:07.764Z,2.23
2023-01-02T12:35:41.202Z,2.97
2023-01-02T12:38:10.194Z,2.00
2023-01-02T12:41:02.168Z,2.43
2023-01-02T12:43:48.283Z,2.80
2023-01-02T12:46:28.313Z,3.97
2023-01-02T12:49:03.770Z,1.90
2023-01-02T12:51:52.051Z,2.03
2023-01-02T12:54:40.116Z,2.20
2023-01-02T12:57:24.832Z,2.30
2023-01-02T13:00:05.510Z,2.67
2023-01-02T13:03:00.774Z,2.43
2023-01-02T13:05:35.277Z,2.37
2023-01-02T13:08:19.123Z,2.50
2023-01-02T13:10:47.924Z,2.10
2023-01-02T13:13:15.926Z,2.77
2023-01-02T13:15:47.399Z,2.33
2023-01-02T13:18:22.319Z,2.53
2023-01-02T13:21:00.929Z,2.23
2023-01-02T13:23:30.485Z,3.03
2023-01-02T13:26:01.966Z,5.83
2023-01-02T13:28:29.153Z,2.50
2023-01-02T13:31:19.222Z,3.97
2023-01-02T13:33:48.445Z,3.17
2023-01-02T13:36:26.797Z,4.07
2023-01-02T13:38:57.694Z,2.83
2023-01-02T13:41:26.271Z,2.63
2023-01-02T13:44:03.677Z,2.50
2023-01-02T13:47:02.565Z,2.37
2023-01-02T13:49:23.628Z,3.00
2023-01-02T13:51:59.841Z,3.10
2023-01-02T13:54:35.979Z,3.33
2023-01-02T13:57:34.988Z,3.10
2023-01-02T14:00:33.982Z,3.33
2023-01-02T14:03:23.133Z,3.07
2023-01-02T14:06:25.432Z,3.60
2023-01-02T14:09:04.374Z,3.17
2023-01-02T14:11:55.710Z,3.07
2023-01-02T14:14:47.720Z,4.37
2023-01-02T14:17:38.682Z,3.20
2023-01-02T14:20:42.624Z,3.00
2023-01-02T14:23:23.105Z,2.87
2023-01-02T14:25:50.869Z,3.20
2023-01-02T14:28:26.982Z,3.10
2023-01-02T14:30:54.593Z,2.73
2023-01-02T14:33:36.166Z,2.67
2023-01-02T14:36:09.039Z,4.07
2023-01-02T14:38:43.469Z,3.23
2023-01-02T14:42:07.002Z,2.60
2023-01-02T14:44:38.945Z,4.33
2023-01-02T14:47:12.154Z,3.07
2023-01-02T14:49:39.667Z,4.20
2023-01-02T14:52:12.813Z,5.53
2023-01-02T14:54:50.916Z,2.60
2023-01-02T14:57:36.991Z,4.30
2023-01-02T15:00:14.264Z,2.57
2023-01-02T15:02:44.730Z,2.83
2023-01-02T15:05:20.150Z,7.50
2023-01-02T15:07:51.350Z,3.90
2023-01-02T15:10:24.084Z,2.30
2023-01-02T15:13:07.722Z,3.70
2023-01-02T15:15:40.512Z,2.23
2023-01-02T15:18:29.608Z,2.57
2023-01-02T15:21:02.586Z,4.87
2023-01-02T15:23:30.195Z,3.70
2023-01-02T15:26:32.379Z,2.30
2023-01-02T15:28:43.883Z,2.63
2023-01-02T15:31:16.343Z,3.83
2023-01-02T15:33:43.201Z,5.23
2023-01-02T15:36:19.921Z,3.10
2023-01-02T15:38:47.758Z,3.57
2023-01-02T15:41:19.609Z,4.90
2023-01-02T15:44:06.204Z,3.10
2023-01-02T15:46:33.463Z,4.47
2023-01-02T15:49:02.962Z,3.27
2023-01-02T15:51:40.540Z,3.87
2023-01-02T15:54:14.078Z,2.83
2023-01-02T15:56:41.434Z,3.73
2023-01-02T15:59:34.781Z,4.30
2023-01-02T16:02:03.297Z,3.67
2023-01-02T16:04:32.917Z,4.40
2023-01-02T16:07:13.175Z,3.67
2023-01-02T16:09:40.422Z,4.57
2023-01-02T16:12:17.890Z,6.37
2023-01-02T16:14:49.357Z,5.80
2023-01-02T16:17:37.239Z,4.60
2023-01-02T16:20:16.019Z,3.70
2023-01-02T16:22:48.515Z,4.77
2023-01-02T16:25:18.228Z,5.03
2023-01-02T16:27:53.725Z,6.23
2023-01-02T16:30:28.727Z,4.37
2023-01-02T16:32:56.344Z,6.87
2023-01-02T16:35:30.234Z,5.70
2023-01-02T16:38:19.696Z,5.97
2023-01-02T16:41:01.104Z,4.40
2023-01-02T16:43:30.686Z,5.43
2023-01-02T16:45:58.794Z,5.20
2023-01-02T16:48:28.442Z,6.37
2023-01-02T16:50:56.872Z,6.43
2023-01-02T16:53:28.083Z,7.67
2023-01-02T16:55:55.123Z,9.00
2023-01-02T16:58:22.367Z,6.27
2023-01-02T17:00:49.708Z,6.53
2023-01-02T17:03:23.141Z,5.47
2023-01-02T17:06:00.966Z,7.57
2023-01-02T17:08:32.510Z,5.20
2023-01-02T17:11:01.016Z,6.73
2023-01-02T17:13:28.951Z,6.77
2023-01-02T17:15:56.816Z,5.33
2023-01-02T17:18:24.497Z,5.80
2023-01-02T17:20:51.892Z,6.27
2023-01-02T17:23:19.779Z,7.47
2023-01-02T17:25:47.242Z,5.30
2023-01-02T17:28:14.975Z,6.43
2023-01-02T17:30:43.913Z,9.33
2023-01-02T17:33:11.319Z,9.83
2023-01-02T17:35:38.669Z,8.50
2023-01-02T17:38:05.742Z,7.03
2023-01-02T17:40:32.728Z,8.90
2023-01-02T17:42:59.725Z,10.13
2023-01-02T17:45:26.908Z,9.97
2023-01-02T17:48:12.153Z,6.93
2023-01-02T17:50:40.505Z,9.43
2023-01-02T17:53:08.064Z,11.17
2023-01-02T17:55:35.007Z,11.77
2023-01-02T17:58:02.625Z,10.00
2023-01-02T18:00:29.475Z,10.27
2023-01-02T18:02:56.385Z,10.90
2023-01-02T18:05:23.566Z,11.43
2023-01-02T18:07:50.999Z,13.47
2023-01-02T18:10:20.356Z,14.30
2023-01-02T18:12:49.320Z,13.40
2023-01-02T18:15:19.905Z,13.43
2023-01-02T18:17:47.434Z,13.10
2023-01-02T18:20:17.342Z,15.90
2023-01-02T18:22:49.434Z,15.33
2023-01-02T18:25:24.739Z,13.83
2023-01-02T18:27:58.121Z,14.17
2023-01-02T18:30:26.609Z,16.40
2023-01-02T18:33:10.844Z,13.40
2023-01-02T18:35:58.182Z,11.17
2023-01-02T18:38:36.784Z,17.03
2023-01-02T18:41:27.645Z,15.23
2023-01-02T18:44:01.895Z,12.77
2023-01-02T18:47:01.735Z,12.07
2023-01-02T18:49:33.707Z,12.93
2023-01-02T18:52:12.690Z,13.87
2023-01-02T18:54:55.803Z,14.43
2023-01-02T18:57:26.082Z,16.67
2023-01-02T18:59:53.052Z,14.23
2023-01-02T19:02:57.808Z,12.97
2023-01-02T19:05:27.880Z,14.53
2023-01-02T19:08:05.230Z,19.23
2023-01-02T19:10:43.269Z,21.13
2023-01-02T19:13:33.392Z,18.23
2023-01-02T19:16:10.156Z,17.17
2023-01-02T19:18:45.129Z,16.77
2023-01-02T19:21:28.482Z,19.93
2023-01-02T19:24:04.452Z,18.77
2023-01-02T19:26:51.033Z,16.63
2023-01-02T19:29:23.488Z,14.17
2023-01-02T19:32:16.276Z,10.37
2023-01-02T19:34:44.543Z,9.53
2023-01-02T19:37:11.575Z,10.00
2023-01-02T19:39:57.416Z,8.20
2023-01-02T19:42:29.650Z,9.33
2023-01-02T19:45:01.202Z,7.77
2023-01-02T19:47:36.658Z,5.63
2023-01-02T19:50:11.838Z,6.90
2023-01-02T19:52:39.292Z,6.27
2023-01-02T19:55:10.348Z,5.13
2023-01-02T19:57:37.406Z,6.20
2023-01-02T20:00:12.830Z,4.30
2023-01-02T20:02:43.604Z,5.27
2023-01-02T20:05:21.832Z,6.97
2023-01-02T20:08:00.265Z,4.13
2023-01-02T20:10:30.181Z,5.87
2023-01-02T20:12:57.022Z,5.97
2023-01-02T20:15:25.681Z,4.70
2023-01-02T20:17:57.272Z,6.47
2023-01-02T20:20:30.033Z,6.70
2023-01-02T20:22:57.183Z,8.47
2023-01-02T20:25:28.019Z,8.67
2023-01-02T20:28:03.339Z,7.70
2023-01-02T20:30:30.269Z,8.10
2023-01-02T20:32:57.290Z,8.70
2023-01-02T20:35:24.812Z,9.17
2023-01-02T20:37:51.656Z,10.47
2023-01-02T20:40:18.600Z,11.23
2023-01-02T20:42:45.505Z,10.93
2023-01-02T20:45:13.200Z,16.17
2023-01-02T20:47:40.336Z,13.97
2023-01-02T20:50:07.698Z,15.30
2023-01-02T20:52:34.741Z,15.47
2023-01-02T20:55:01.701Z,15.83
2023-01-02T20:57:29.332Z,18.53
2023-01-02T20:59:56.569Z,16.27
2023-01-02T21:02:23.777Z,21.10
2023-01-02T21:04:51.515Z,17.43
2023-01-02T21:07:19.083Z,17.87
2023-01-02T21:09:49.016Z,21.77
2023-01-02T21:12:34.744Z,21.60
2023-01-02T21:15:01.663Z,20.67
2023-01-02T21:17:28.499Z,22.37
2023-01-02T21:19:55.489Z,19.80
2023-01-02T21:22:22.404Z,20.77
2023-01-02T21:24:49.376Z,19.33
2023-01-02T21:27:16.314Z,18.00
2023-01-02T21:29:45.616Z,17.30
2023-01-02T21:32:12.702Z,18.77
2023-01-02T21:34:39.475Z,17.67
2023-01-02T21:37:06.290Z,18.60
2023-01-02T21:39:33.100Z,18.07
2023-01-02T21:42:18.454Z,15.47
2023-01-02T21:44:47.302Z,16.97
2023-01-02T21:47:17.919Z,17.30
2023-01-02T21:49:45.664Z,16.57
2023-01-02T21:52:12.569Z,16.47
2023-01-02T21:54:39.590Z,15.37
2023-01-02T21:57:06.462Z,14.23
2023-01-02T21:59:33.539Z,18.13
2023-01-02T22:02:04.046Z,16.13
2023-01-02T22:04:31.312Z,15.27
2023-01-02T22:09:45.112Z,14.77
2023-01-02T22:12:12.103Z,15.63
2023-01-02T22:14:39.641Z,17.67
2023-01-02T22:17:10.580Z,13.43
2023-01-02T22:19:38.056Z,13.57
2023-01-02T22:22:05.536Z,14.83
2023-01-02T22:24:34.672Z,21.50
2023-01-02T22:27:05.742Z,16.83
2023-01-02T22:30:09.536Z,17.20
2023-01-02T22:32:21.069Z,15.73
2023-01-02T22:34:50.411Z,14.47
2023-01-02T22:37:22.277Z,15.37
2023-01-02T22:39:49.849Z,15.83
2023-01-02T22:43:02.693Z,14.40
2023-01-02T22:45:35.856Z,16.13
2023-01-02T22:48:07.819Z,12.90
2023-01-02T22:50:44.590Z,15.97
2023-01-02T22:53:23.351Z,18.10
2023-01-02T22:55:50.721Z,20.97
2023-01-02T22:58:19.004Z,14.37
2023-01-02T23:00:49.040Z,13.70
2023-01-02T23:03:16.866Z,14.13
2023-01-02T23:05:43.803Z,12.87
2023-01-02T23:08:10.762Z,13.27
2023-01-02T23:10:37.948Z,14.40
2023-01-02T23:13:05.450Z,12.30
2023-01-02T23:15:32.280Z,15.17
2023-01-02T23:18:17.897Z,14.87
2023-01-02T23:20:44.732Z,14.57
2023-01-02T23:23:11.810Z,12.70
2023-01-02T23:25:41.532Z,14.70
2023-01-02T23:28:08.441Z,13.67
2023-01-02T23:30:35.346Z,13.93
2023-01-02T23:33:02.235Z,13.50
2023-01-02T23:35:29.077Z,14.70
2023-01-02T23:37:56.024Z,13.47
2023-01-02T23:40:22.939Z,12.33
2023-01-02T23:42:50.090Z,12.27
2023-01-02T23:45:16.997Z,14.00
2023-01-02T23:47:44.237Z,11.33
2023-01-02T23:50:11.271Z,14.23
2023-01-02T23:52:38.052Z,14.83
2023-01-02T23:55:05.708Z,12.40
2023-01-02T23:57:32.574Z,16.37
2023-01-02T23:59:59.365Z,14.53
